PWSweather.com
Personal Weather Stations
Station Observations
270882
Flassian, LimouxFR 11300

FlassianLimouxFR 11300

Lat: 43.071798, Lon: 2.217292

Elevation: 165

Station Type: Oregon WMR 200

http://www.meteolimoux.fr

Latest ConditionsUpdated 11:07:11 PM GMT+01:01 Saturday, Feb 23, 2019
Currently Today's Max Today's Min Today's Average
Temperature 45.5°F7.5°C 69.8°F21.0°C 36.3°F2.4°C 53.0°F11.7°C
Dew Point 38.1°F3.4°C 40.1°F4.5°C 28.9°F-1.7°C 34.9°F1.6°C
Winds Calm Calm 10.7 mph -17.2 kmh - - 1.4 mph 2.3 kmh
Wind Gusts -- 22.4 mph36.0 kmh - -
Humidity 75% 77% 32% 53%
Pressure 30.40 in1029.5 mb 30.40 in1029.5 mb 30.28 in1025.4 mb -
Hour Temp Dew Point Humidity Winds Wind Gusts Pressure Precip Precip Rate Daily Precip Total
11:07 PM 45.5°F7.5°C 38.1°F3.4°C 75% Calm Calm -- 30.40 in1029.5 mb - 0.00 in0.0 mm 0.00 in0.0 mm
11:02 PM 45.5°F7.5°C 38.7°F3.7°C 77% 0.2 mph S0.3 kmh S 2.2 mph3.5 kmh 30.40 in1029.5 mb - 0.00 in0.0 mm 0.00 in0.0 mm
10:57 PM 46.0°F7.8°C 37.2°F2.9°C 71% Calm Calm -- 30.40 in1029.5 mb - 0.00 in0.0 mm 0.00 in0.0 mm
10:52 PM 46.2°F7.9°C 38.1°F3.4°C 73% Calm Calm -- 30.40 in1029.5 mb - 0.00 in0.0 mm 0.00 in0.0 mm
10:47 PM 46.4°F8.0°C 37.9°F3.3°C 72% Calm Calm -- 30.40 in1029.5 mb - 0.00 in0.0 mm 0.00 in0.0 mm
10:42 PM 46.6°F8.1°C 37.8°F3.2°C 71% Calm Calm -- 30.40 in1029.5 mb - 0.00 in0.0 mm 0.00 in0.0 mm
10:37 PM 46.8°F8.2°C 37.2°F2.9°C 69% 0.4 mph SW0.6 kmh SW 2.7 mph4.3 kmh 30.40 in1029.5 mb - 0.00 in0.0 mm 0.00 in0.0 mm
10:32 PM 46.9°F8.3°C 37.4°F3.0°C 69% Calm Calm -- 30.40 in1029.5 mb - 0.00 in0.0 mm 0.00 in0.0 mm
10:27 PM 47.1°F8.4°C 37.6°F3.1°C 69% Calm Calm -- 30.40 in1029.5 mb - 0.00 in0.0 mm 0.00 in0.0 mm
10:22 PM 47.3°F8.5°C 37.2°F2.9°C 68% Calm Calm -- 30.40 in1029.5 mb - 0.00 in0.0 mm 0.00 in0.0 mm
10:17 PM 47.5°F8.6°C 38.1°F3.4°C 70% Calm Calm -- 30.37 in1028.4 mb - 0.00 in0.0 mm 0.00 in0.0 mm
10:12 PM 47.8°F8.8°C 37.8°F3.2°C 68% Calm Calm -- 30.37 in1028.4 mb - 0.00 in0.0 mm 0.00 in0.0 mm
10:07 PM 48.0°F8.9°C 38.3°F3.5°C 69% Calm Calm -- 30.37 in1028.4 mb - 0.00 in0.0 mm 0.00 in0.0 mm
10:02 PM 48.2°F9.0°C 38.1°F3.4°C 68% Calm Calm -- 30.37 in1028.4 mb - 0.00 in0.0 mm 0.00 in0.0 mm
09:57 PM 48.4°F9.1°C 37.9°F3.3°C 67% Calm Calm -- 30.37 in1028.4 mb - 0.00 in0.0 mm 0.00 in0.0 mm
09:52 PM 48.7°F9.3°C 37.6°F3.1°C 65% Calm Calm -- 30.37 in1028.4 mb - 0.00 in0.0 mm 0.00 in0.0 mm
09:47 PM 48.9°F9.4°C 37.2°F2.9°C 64% Calm Calm -- 30.34 in1027.4 mb - 0.00 in0.0 mm 0.00 in0.0 mm
09:42 PM 49.5°F9.7°C 38.7°F3.7°C 66% 0.2 mph SSE0.3 kmh SSE 2.0 mph3.2 kmh 30.34 in1027.4 mb - 0.00 in0.0 mm 0.00 in0.0 mm
09:37 PM 49.8°F9.9°C 38.5°F3.6°C 65% - N N -- 30.34 in1027.4 mb - 0.00 in0.0 mm 0.00 in0.0 mm
09:32 PM 50.2°F10.1°C 38.5°F3.6°C 64% 0.2 mph SW0.3 kmh SW 2.7 mph4.3 kmh 30.34 in1027.4 mb - 0.00 in0.0 mm 0.00 in0.0 mm
09:27 PM 50.2°F10.1°C 37.8°F3.2°C 62% Calm Calm -- 30.34 in1027.4 mb - 0.00 in0.0 mm 0.00 in0.0 mm
09:22 PM 50.2°F10.1°C 38.1°F3.4°C 63% Calm Calm -- 30.34 in1027.4 mb - 0.00 in0.0 mm 0.00 in0.0 mm
09:17 PM 50.4°F10.2°C 37.4°F3.0°C 61% Calm Calm -- 30.34 in1027.4 mb - 0.00 in0.0 mm 0.00 in0.0 mm
09:12 PM 50.7°F10.4°C 37.8°F3.2°C 61% Calm Calm -- 30.34 in1027.4 mb - 0.00 in0.0 mm 0.00 in0.0 mm
09:07 PM 50.7°F10.4°C 37.4°F3.0°C 60% 1.3 mph WSW2.1 kmh WSW 3.4 mph5.5 kmh 30.34 in1027.4 mb - 0.00 in0.0 mm 0.00 in0.0 mm
09:02 PM 50.9°F10.5°C 37.6°F3.1°C 60% Calm Calm -- 30.31 in1026.4 mb - 0.00 in0.0 mm 0.00 in0.0 mm
08:57 PM 51.1°F10.6°C 37.8°F3.2°C 60% Calm Calm -- 30.31 in1026.4 mb - 0.00 in0.0 mm 0.00 in0.0 mm
08:52 PM 51.3°F10.7°C 37.0°F2.8°C 58% Calm Calm -- 30.31 in1026.4 mb - 0.00 in0.0 mm 0.00 in0.0 mm
08:47 PM 51.6°F10.9°C 37.8°F3.2°C 59% Calm Calm -- 30.34 in1027.4 mb - 0.00 in0.0 mm 0.00 in0.0 mm
08:42 PM 52.2°F11.2°C 37.0°F2.8°C 56% Calm Calm -- 30.34 in1027.4 mb - 0.00 in0.0 mm 0.00 in0.0 mm
08:37 PM 52.3°F11.3°C 36.7°F2.6°C 55% Calm Calm -- 30.34 in1027.4 mb - 0.00 in0.0 mm 0.00 in0.0 mm
08:32 PM 52.7°F11.5°C 37.9°F3.3°C 57% Calm Calm -- 30.34 in1027.4 mb - 0.00 in0.0 mm 0.00 in0.0 mm
08:27 PM 53.1°F11.7°C 38.3°F3.5°C 57% Calm Calm -- 30.34 in1027.4 mb - 0.00 in0.0 mm 0.00 in0.0 mm
08:22 PM 53.4°F11.9°C 37.8°F3.2°C 55% Calm Calm -- 30.34 in1027.4 mb - 0.00 in0.0 mm 0.00 in0.0 mm
08:17 PM 54.0°F12.2°C 38.1°F3.4°C 55% Calm Calm -- 30.34 in1027.4 mb - 0.00 in0.0 mm 0.00 in0.0 mm
08:12 PM 54.5°F12.5°C 37.2°F2.9°C 52% Calm Calm -- 30.34 in1027.4 mb - 0.00 in0.0 mm 0.00 in0.0 mm
08:07 PM 55.2°F12.9°C 37.4°F3.0°C 51% Calm Calm -- 30.34 in1027.4 mb - 0.00 in0.0 mm 0.00 in0.0 mm
08:02 PM 55.6°F13.1°C 37.8°F3.2°C 51% Calm Calm -- 30.34 in1027.4 mb - 0.00 in0.0 mm 0.00 in0.0 mm
07:57 PM 55.9°F13.3°C 38.1°F3.4°C 51% Calm Calm -- 30.34 in1027.4 mb - 0.00 in0.0 mm 0.00 in0.0 mm
07:52 PM 56.3°F13.5°C 38.5°F3.6°C 51% Calm Calm -- 30.34 in1027.4 mb - 0.00 in0.0 mm 0.00 in0.0 mm
07:47 PM 56.7°F13.7°C 37.2°F2.9°C 48% Calm Calm -- 30.37 in1028.4 mb - 0.00 in0.0 mm 0.00 in0.0 mm
07:42 PM 57.2°F14.0°C 37.8°F3.2°C 48% Calm Calm -- 30.37 in1028.4 mb - 0.00 in0.0 mm 0.00 in0.0 mm
07:37 PM 57.6°F14.2°C 38.1°F3.4°C 48% Calm Calm -- 30.37 in1028.4 mb - 0.00 in0.0 mm 0.00 in0.0 mm
07:32 PM 58.1°F14.5°C 37.4°F3.0°C 46% Calm Calm -- 30.34 in1027.4 mb - 0.00 in0.0 mm 0.00 in0.0 mm
07:27 PM 58.5°F14.7°C 37.8°F3.2°C 46% Calm Calm -- 30.34 in1027.4 mb - 0.00 in0.0 mm 0.00 in0.0 mm
07:22 PM 59.0°F15.0°C 38.3°F3.5°C 46% Calm Calm -- 30.34 in1027.4 mb - 0.00 in0.0 mm 0.00 in0.0 mm
07:17 PM 59.5°F15.3°C 38.3°F3.5°C 45% Calm Calm -- 30.34 in1027.4 mb - 0.00 in0.0 mm 0.00 in0.0 mm
07:12 PM 60.1°F15.6°C 38.7°F3.7°C 45% Calm Calm -- 30.34 in1027.4 mb - 0.00 in0.0 mm 0.00 in0.0 mm
07:07 PM 60.4°F15.8°C 39.0°F3.9°C 45% Calm Calm -- 30.34 in1027.4 mb - 0.00 in0.0 mm 0.00 in0.0 mm
07:02 PM 61.0°F16.1°C 39.0°F3.9°C 44% 0.2 mph 0.3 kmh -- 30.34 in1027.4 mb - 0.00 in0.0 mm 0.00 in0.0 mm
06:57 PM 61.9°F16.6°C 38.5°F3.6°C 42% 0.7 mph E1.1 kmh E 6.3 mph10.1 kmh 30.34 in1027.4 mb - 0.00 in0.0 mm 0.00 in0.0 mm
06:52 PM 62.2°F16.8°C 38.3°F3.5°C 41% 0.2 mph NE0.3 kmh NE 4.3 mph6.9 kmh 30.34 in1027.4 mb - 0.00 in0.0 mm 0.00 in0.0 mm
06:47 PM 63.1°F17.3°C 37.8°F3.2°C 39% 0.4 mph E0.6 kmh E 4.9 mph7.9 kmh 30.34 in1027.4 mb - 0.00 in0.0 mm 0.00 in0.0 mm
06:42 PM 63.7°F17.6°C 37.6°F3.1°C 38% 0.2 mph NW0.3 kmh NW 4.7 mph7.6 kmh 30.34 in1027.4 mb - 0.00 in0.0 mm 0.00 in0.0 mm
06:37 PM 64.0°F17.8°C 37.9°F3.3°C 38% Calm Calm -- 30.34 in1027.4 mb - 0.00 in0.0 mm 0.00 in0.0 mm
06:32 PM 64.4°F18.0°C 37.6°F3.1°C 37% Calm Calm 1.1 mph1.8 kmh 30.34 in1027.4 mb - 0.00 in0.0 mm 0.00 in0.0 mm
06:27 PM 64.8°F18.2°C 37.9°F3.3°C 37% 1.1 mph WSW1.8 kmh WSW 6.0 mph9.7 kmh 30.34 in1027.4 mb - 0.00 in0.0 mm 0.00 in0.0 mm
06:22 PM 65.7°F18.7°C 37.9°F3.3°C 36% 4.7 mph WNW7.6 kmh WNW 8.9 mph14.3 kmh 30.34 in1027.4 mb - 0.00 in0.0 mm 0.00 in0.0 mm
06:17 PM 65.8°F18.8°C 38.1°F3.4°C 36% 6.5 mph WNW10.5 kmh WNW 9.8 mph15.8 kmh 30.31 in1026.4 mb - 0.00 in0.0 mm 0.00 in0.0 mm
06:12 PM 66.2°F19.0°C 37.8°F3.2°C 35% 6.0 mph NW9.7 kmh NW 11.4 mph18.3 kmh 30.31 in1026.4 mb - 0.00 in0.0 mm 0.00 in0.0 mm
06:07 PM 66.4°F19.1°C 37.9°F3.3°C 35% 5.6 mph W9.0 kmh W 13.0 mph20.9 kmh 30.31 in1026.4 mb - 0.00 in0.0 mm 0.00 in0.0 mm
06:02 PM 66.7°F19.3°C 38.3°F3.5°C 35% 4.9 mph W7.9 kmh W 10.3 mph16.6 kmh 30.31 in1026.4 mb - 0.00 in0.0 mm 0.00 in0.0 mm
05:57 PM 67.1°F19.5°C 38.5°F3.6°C 35% 3.6 mph NW5.8 kmh NW 8.5 mph13.7 kmh 30.31 in1026.4 mb - 0.00 in0.0 mm 0.00 in0.0 mm
05:52 PM 67.5°F19.7°C 38.1°F3.4°C 34% 5.6 mph NW9.0 kmh NW 9.6 mph15.4 kmh 30.31 in1026.4 mb - 0.00 in0.0 mm 0.00 in0.0 mm
05:47 PM 67.6°F19.8°C 38.3°F3.5°C 34% 5.8 mph NW9.3 kmh NW 12.3 mph19.8 kmh 30.31 in1026.4 mb - 0.00 in0.0 mm 0.00 in0.0 mm
05:42 PM 67.8°F19.9°C 38.5°F3.6°C 34% 6.3 mph WNW10.1 kmh WNW 17.2 mph27.7 kmh 30.31 in1026.4 mb - 0.00 in0.0 mm 0.00 in0.0 mm
05:37 PM 68.0°F20.0°C 38.7°F3.7°C 34% 7.2 mph WSW11.6 kmh WSW 14.5 mph23.3 kmh 30.31 in1026.4 mb - 0.00 in0.0 mm 0.00 in0.0 mm
05:32 PM 68.0°F20.0°C 38.7°F3.7°C 34% 5.6 mph WNW9.0 kmh WNW 12.1 mph19.5 kmh 30.31 in1026.4 mb - 0.00 in0.0 mm 0.00 in0.0 mm
05:27 PM 67.8°F19.9°C 38.5°F3.6°C 34% 2.7 mph W4.3 kmh W 11.9 mph19.2 kmh 30.31 in1026.4 mb - 0.00 in0.0 mm 0.00 in0.0 mm
05:22 PM 68.2°F20.1°C 38.8°F3.8°C 34% 5.4 mph NW8.7 kmh NW 14.1 mph22.7 kmh 30.31 in1026.4 mb - 0.00 in0.0 mm 0.00 in0.0 mm
05:17 PM 68.4°F20.2°C 39.0°F3.9°C 34% 4.9 mph NW7.9 kmh NW 4.9 mph7.9 kmh 30.28 in1025.4 mb - 0.00 in0.0 mm 0.00 in0.0 mm
05:12 PM 68.4°F20.2°C 38.1°F3.4°C 33% 7.8 mph WNW12.6 kmh WNW 15.9 mph25.6 kmh 30.28 in1025.4 mb - 0.00 in0.0 mm 0.00 in0.0 mm
05:07 PM 68.4°F20.2°C 38.1°F3.4°C 33% 9.4 mph WNW15.1 kmh WNW 17.7 mph28.5 kmh 30.28 in1025.4 mb - 0.00 in0.0 mm 0.00 in0.0 mm
05:02 PM 68.4°F20.2°C 38.1°F3.4°C 33% 9.2 mph WNW14.8 kmh WNW 15.9 mph25.6 kmh 30.28 in1025.4 mb - 0.00 in0.0 mm 0.00 in0.0 mm
04:57 PM 68.7°F20.4°C 38.5°F3.6°C 33% 8.5 mph WNW13.7 kmh WNW 21.7 mph34.9 kmh 30.28 in1025.4 mb - 0.00 in0.0 mm 0.00 in0.0 mm
04:52 PM 68.7°F20.4°C 38.5°F3.6°C 33% 9.2 mph WNW14.8 kmh WNW 15.9 mph25.6 kmh 30.28 in1025.4 mb - 0.00 in0.0 mm 0.00 in0.0 mm
04:47 PM 69.1°F20.6°C 38.8°F3.8°C 33% 8.1 mph W13.0 kmh W 17.0 mph27.4 kmh 30.28 in1025.4 mb - 0.00 in0.0 mm 0.00 in0.0 mm
04:42 PM 69.1°F20.6°C 38.8°F3.8°C 33% 5.8 mph NW9.3 kmh NW 14.3 mph23.0 kmh 30.28 in1025.4 mb - 0.00 in0.0 mm 0.00 in0.0 mm
04:37 PM 69.4°F20.8°C 39.2°F4.0°C 33% 5.8 mph WNW9.3 kmh WNW 12.3 mph19.8 kmh 30.28 in1025.4 mb - 0.00 in0.0 mm 0.00 in0.0 mm
04:32 PM 69.6°F20.9°C 38.5°F3.6°C 32% 5.4 mph WNW8.7 kmh WNW 5.4 mph8.7 kmh 30.28 in1025.4 mb - 0.00 in0.0 mm 0.00 in0.0 mm
04:27 PM 69.4°F20.8°C 38.3°F3.5°C 32% 5.8 mph NW9.3 kmh NW 12.5 mph20.1 kmh 30.28 in1025.4 mb - 0.00 in0.0 mm 0.00 in0.0 mm
04:22 PM 69.8°F21.0°C 38.7°F3.7°C 32% 6.5 mph WNW10.5 kmh WNW 14.5 mph23.3 kmh 30.28 in1025.4 mb - 0.00 in0.0 mm 0.00 in0.0 mm
04:17 PM 69.6°F20.9°C 38.5°F3.6°C 32% 5.6 mph W9.0 kmh W 18.3 mph29.5 kmh 30.28 in1025.4 mb - 0.00 in0.0 mm 0.00 in0.0 mm
04:12 PM 69.6°F20.9°C 38.5°F3.6°C 32% 6.7 mph NW10.8 kmh NW 13.0 mph20.9 kmh 30.28 in1025.4 mb - 0.00 in0.0 mm 0.00 in0.0 mm
04:07 PM 69.6°F20.9°C 38.5°F3.6°C 32% 6.9 mph NW11.1 kmh NW 11.6 mph18.7 kmh 30.28 in1025.4 mb - 0.00 in0.0 mm 0.00 in0.0 mm
04:02 PM 69.4°F20.8°C 38.3°F3.5°C 32% 8.3 mph WNW13.4 kmh WNW 14.5 mph23.3 kmh 30.31 in1026.4 mb - 0.00 in0.0 mm 0.00 in0.0 mm
03:57 PM 69.4°F20.8°C 38.3°F3.5°C 32% 9.2 mph NW14.8 kmh NW 15.0 mph24.1 kmh 30.31 in1026.4 mb - 0.00 in0.0 mm 0.00 in0.0 mm
03:52 PM 69.3°F20.7°C 38.1°F3.4°C 32% 10.7 mph WNW17.2 kmh WNW 18.6 mph29.9 kmh 30.31 in1026.4 mb - 0.00 in0.0 mm 0.00 in0.0 mm
03:47 PM 69.3°F20.7°C 38.1°F3.4°C 32% 6.9 mph NW11.1 kmh NW 15.4 mph24.8 kmh 30.28 in1025.4 mb - 0.00 in0.0 mm 0.00 in0.0 mm
03:42 PM 69.3°F20.7°C 38.1°F3.4°C 32% 4.0 mph NW6.4 kmh NW 17.2 mph27.7 kmh 30.28 in1025.4 mb - 0.00 in0.0 mm 0.00 in0.0 mm
03:37 PM 69.6°F20.9°C 38.5°F3.6°C 32% 7.2 mph NW11.6 kmh NW 15.2 mph24.5 kmh 30.28 in1025.4 mb - 0.00 in0.0 mm 0.00 in0.0 mm
03:32 PM 69.8°F21.0°C 38.7°F3.7°C 32% 3.4 mph W5.5 kmh W 15.0 mph24.1 kmh 30.28 in1025.4 mb - 0.00 in0.0 mm 0.00 in0.0 mm
03:27 PM 69.8°F21.0°C 38.7°F3.7°C 32% 5.6 mph NW9.0 kmh NW 11.0 mph17.7 kmh 30.28 in1025.4 mb - 0.00 in0.0 mm 0.00 in0.0 mm
03:22 PM 69.8°F21.0°C 38.7°F3.7°C 32% 2.0 mph N3.2 kmh N 9.2 mph14.8 kmh 30.28 in1025.4 mb - 0.00 in0.0 mm 0.00 in0.0 mm
03:17 PM 69.6°F20.9°C 38.5°F3.6°C 32% 6.0 mph WNW9.7 kmh WNW 21.9 mph35.2 kmh 30.28 in1025.4 mb - 0.00 in0.0 mm 0.00 in0.0 mm
03:12 PM 69.6°F20.9°C 38.5°F3.6°C 32% 6.5 mph WNW10.5 kmh WNW 22.4 mph36.0 kmh 30.28 in1025.4 mb - 0.00 in0.0 mm 0.00 in0.0 mm
03:07 PM 69.4°F20.8°C 38.3°F3.5°C 32% 6.3 mph W10.1 kmh W 18.1 mph29.1 kmh 30.28 in1025.4 mb - 0.00 in0.0 mm 0.00 in0.0 mm
03:02 PM 69.6°F20.9°C 38.5°F3.6°C 32% 7.8 mph NW12.6 kmh NW 15.2 mph24.5 kmh 30.28 in1025.4 mb - 0.00 in0.0 mm 0.00 in0.0 mm
02:57 PM 69.6°F20.9°C 39.2°F4.0°C 33% 6.7 mph WSW10.8 kmh WSW 15.7 mph25.3 kmh 30.28 in1025.4 mb - 0.00 in0.0 mm 0.00 in0.0 mm
02:52 PM 69.6°F20.9°C 39.2°F4.0°C 33% 7.6 mph WNW12.2 kmh WNW 15.4 mph24.8 kmh 30.28 in1025.4 mb - 0.00 in0.0 mm 0.00 in0.0 mm
02:47 PM 69.4°F20.8°C 39.2°F4.0°C 33% 6.0 mph WNW9.7 kmh WNW 12.1 mph19.5 kmh 30.28 in1025.4 mb - 0.00 in0.0 mm 0.00 in0.0 mm
02:42 PM 69.4°F20.8°C 39.2°F4.0°C 33% 2.5 mph WNW4.0 kmh WNW 13.4 mph21.6 kmh 30.28 in1025.4 mb - 0.00 in0.0 mm 0.00 in0.0 mm
02:37 PM 69.8°F21.0°C 39.4°F4.1°C 33% 4.5 mph W7.2 kmh W 12.1 mph19.5 kmh 30.28 in1025.4 mb - 0.00 in0.0 mm 0.00 in0.0 mm
02:32 PM 69.6°F20.9°C 40.1°F4.5°C 34% 8.5 mph WNW13.7 kmh WNW 16.8 mph27.0 kmh 30.28 in1025.4 mb - 0.00 in0.0 mm 0.00 in0.0 mm
02:27 PM 69.4°F20.8°C 39.9°F4.4°C 34% 6.9 mph NW11.1 kmh NW 13.2 mph21.2 kmh 30.28 in1025.4 mb - 0.00 in0.0 mm 0.00 in0.0 mm
02:22 PM 69.3°F20.7°C 39.7°F4.3°C 34% 6.9 mph NW11.1 kmh NW 14.3 mph23.0 kmh 30.28 in1025.4 mb - 0.00 in0.0 mm 0.00 in0.0 mm
02:17 PM 69.3°F20.7°C 39.0°F3.9°C 33% 6.7 mph NW10.8 kmh NW 16.3 mph26.2 kmh 30.28 in1025.4 mb - 0.00 in0.0 mm 0.00 in0.0 mm
02:12 PM 68.9°F20.5°C 38.7°F3.7°C 33% 5.8 mph NW9.3 kmh NW 12.8 mph20.6 kmh 30.28 in1025.4 mb - 0.00 in0.0 mm 0.00 in0.0 mm
02:07 PM 69.3°F20.7°C 39.0°F3.9°C 33% 7.2 mph NW11.6 kmh NW 14.1 mph22.7 kmh 30.28 in1025.4 mb - 0.00 in0.0 mm 0.00 in0.0 mm
02:02 PM 69.1°F20.6°C 38.8°F3.8°C 33% 7.2 mph WSW11.6 kmh WSW 13.9 mph22.4 kmh 30.31 in1026.4 mb - 0.00 in0.0 mm 0.00 in0.0 mm
01:57 PM 69.1°F20.6°C 38.8°F3.8°C 33% 6.7 mph NW10.8 kmh NW 13.6 mph21.9 kmh 30.31 in1026.4 mb - 0.00 in0.0 mm 0.00 in0.0 mm
01:52 PM 69.1°F20.6°C 38.8°F3.8°C 33% 2.7 mph NW4.3 kmh NW 13.2 mph21.2 kmh 30.31 in1026.4 mb - 0.00 in0.0 mm 0.00 in0.0 mm
01:47 PM 68.9°F20.5°C 39.4°F4.1°C 34% 0.4 mph WNW0.6 kmh WNW 7.2 mph11.6 kmh 30.31 in1026.4 mb - 0.00 in0.0 mm 0.00 in0.0 mm
01:42 PM 68.9°F20.5°C 39.4°F4.1°C 34% 4.7 mph NW7.6 kmh NW 9.2 mph14.8 kmh 30.31 in1026.4 mb - 0.00 in0.0 mm 0.00 in0.0 mm
01:37 PM 68.9°F20.5°C 40.1°F4.5°C 35% 2.7 mph WNW4.3 kmh WNW 11.4 mph18.3 kmh 30.31 in1026.4 mb - 0.00 in0.0 mm 0.00 in0.0 mm
01:32 PM 68.5°F20.3°C 39.9°F4.4°C 35% 1.1 mph WNW1.8 kmh WNW 8.7 mph14.0 kmh 30.31 in1026.4 mb - 0.00 in0.0 mm 0.00 in0.0 mm
01:27 PM 68.5°F20.3°C 39.0°F3.9°C 34% 1.1 mph WNW1.8 kmh WNW 4.9 mph7.9 kmh 30.31 in1026.4 mb - 0.00 in0.0 mm 0.00 in0.0 mm
01:22 PM 68.5°F20.3°C 39.0°F3.9°C 34% 0.9 mph WNW1.4 kmh WNW 7.6 mph12.2 kmh 30.31 in1026.4 mb - 0.00 in0.0 mm 0.00 in0.0 mm
01:17 PM 68.5°F20.3°C 39.9°F4.4°C 35% 3.8 mph WNW6.1 kmh WNW 11.9 mph19.2 kmh 30.31 in1026.4 mb - 0.00 in0.0 mm 0.00 in0.0 mm
01:12 PM 68.0°F20.0°C 38.7°F3.7°C 34% 0.4 mph N0.6 kmh N 6.3 mph10.1 kmh 30.31 in1026.4 mb - 0.00 in0.0 mm 0.00 in0.0 mm
01:07 PM 68.2°F20.1°C 38.8°F3.8°C 34% Calm Calm -- 30.31 in1026.4 mb - 0.00 in0.0 mm 0.00 in0.0 mm
01:02 PM 68.4°F20.2°C 39.0°F3.9°C 34% Calm Calm -- 30.31 in1026.4 mb - 0.00 in0.0 mm 0.00 in0.0 mm
12:57 PM 68.7°F20.4°C 39.9°F4.4°C 35% Calm Calm -- 30.31 in1026.4 mb - 0.00 in0.0 mm 0.00 in0.0 mm
12:52 PM 68.4°F20.2°C 39.0°F3.9°C 34% Calm Calm -- 30.31 in1026.4 mb - 0.00 in0.0 mm 0.00 in0.0 mm
12:47 PM 68.4°F20.2°C 39.7°F4.3°C 35% Calm Calm -- 30.31 in1026.4 mb - 0.00 in0.0 mm 0.00 in0.0 mm
12:42 PM 67.8°F19.9°C 39.2°F4.0°C 35% 1.6 mph N2.6 kmh N 9.6 mph15.4 kmh 30.31 in1026.4 mb - 0.00 in0.0 mm 0.00 in0.0 mm
12:37 PM 66.9°F19.4°C 37.8°F3.2°C 34% 1.1 mph WNW1.8 kmh WNW 6.5 mph10.5 kmh 30.31 in1026.4 mb - 0.00 in0.0 mm 0.00 in0.0 mm
12:32 PM 66.7°F19.3°C 38.3°F3.5°C 35% 0.9 mph WNW1.4 kmh WNW 7.6 mph12.2 kmh 30.31 in1026.4 mb - 0.00 in0.0 mm 0.00 in0.0 mm
12:27 PM 66.7°F19.3°C 38.3°F3.5°C 35% Calm Calm -- 30.31 in1026.4 mb - 0.00 in0.0 mm 0.00 in0.0 mm
12:22 PM 66.7°F19.3°C 37.6°F3.1°C 34% 0.7 mph S1.1 kmh S 4.5 mph7.2 kmh 30.31 in1026.4 mb - 0.00 in0.0 mm 0.00 in0.0 mm
12:17 PM 66.7°F19.3°C 38.3°F3.5°C 35% Calm Calm -- 30.31 in1026.4 mb - 0.00 in0.0 mm 0.00 in0.0 mm
12:12 PM 66.6°F19.2°C 37.4°F3.0°C 34% Calm Calm -- 30.31 in1026.4 mb - 0.00 in0.0 mm 0.00 in0.0 mm
12:07 PM 66.2°F19.0°C 37.8°F3.2°C 35% Calm Calm -- 30.31 in1026.4 mb - 0.00 in0.0 mm 0.00 in0.0 mm
12:02 PM 66.0°F18.9°C 37.6°F3.1°C 35% Calm Calm -- 30.31 in1026.4 mb - 0.00 in0.0 mm 0.00 in0.0 mm
11:57 AM 65.3°F18.5°C 37.0°F2.8°C 35% Calm Calm -- 30.31 in1026.4 mb - 0.00 in0.0 mm 0.00 in0.0 mm
11:52 AM 65.1°F18.4°C 37.6°F3.1°C 36% 0.4 mph S0.6 kmh S 3.1 mph5.0 kmh 30.31 in1026.4 mb - 0.00 in0.0 mm 0.00 in0.0 mm
11:47 AM 64.4°F18.0°C 36.1°F2.3°C 35% 0.4 mph SSE0.6 kmh SSE 3.6 mph5.8 kmh 30.31 in1026.4 mb - 0.00 in0.0 mm 0.00 in0.0 mm
11:42 AM 64.0°F17.8°C 36.0°F2.2°C 35% Calm Calm -- 30.31 in1026.4 mb - 0.00 in0.0 mm 0.00 in0.0 mm
11:37 AM 63.9°F17.7°C 36.5°F2.5°C 36% Calm Calm -- 30.31 in1026.4 mb - 0.00 in0.0 mm 0.00 in0.0 mm
11:32 AM 63.3°F17.4°C 36.7°F2.6°C 37% Calm Calm -- 30.31 in1026.4 mb - 0.00 in0.0 mm 0.00 in0.0 mm
11:27 AM 63.1°F17.3°C 37.2°F2.9°C 38% Calm Calm -- 30.31 in1026.4 mb - 0.00 in0.0 mm 0.00 in0.0 mm
11:22 AM 62.6°F17.0°C 37.4°F3.0°C 39% Calm Calm -- 30.31 in1026.4 mb - 0.00 in0.0 mm 0.00 in0.0 mm
11:17 AM 61.9°F16.6°C 37.4°F3.0°C 40% Calm Calm -- 30.31 in1026.4 mb - 0.00 in0.0 mm 0.00 in0.0 mm
11:12 AM 61.0°F16.1°C 37.2°F2.9°C 41% Calm Calm -- 30.31 in1026.4 mb - 0.00 in0.0 mm 0.00 in0.0 mm
11:07 AM 60.3°F15.7°C 36.5°F2.5°C 41% Calm Calm -- 30.31 in1026.4 mb - 0.00 in0.0 mm 0.00 in0.0 mm
11:02 AM 59.5°F15.3°C 35.8°F2.1°C 41% Calm Calm -- 30.31 in1026.4 mb - 0.00 in0.0 mm 0.00 in0.0 mm
10:57 AM 59.2°F15.1°C 35.6°F2.0°C 41% Calm Calm -- 30.31 in1026.4 mb - 0.00 in0.0 mm 0.00 in0.0 mm
10:52 AM 59.0°F15.0°C 37.2°F2.9°C 44% Calm Calm -- 30.31 in1026.4 mb - 0.00 in0.0 mm 0.00 in0.0 mm
10:47 AM 58.5°F14.7°C 36.7°F2.6°C 44% Calm Calm -- 30.34 in1027.4 mb - 0.00 in0.0 mm 0.00 in0.0 mm
10:42 AM 57.2°F14.0°C 36.7°F2.6°C 46% Calm Calm -- 30.34 in1027.4 mb - 0.00 in0.0 mm 0.00 in0.0 mm
10:37 AM 56.1°F13.4°C 36.1°F2.3°C 47% Calm Calm -- 30.34 in1027.4 mb - 0.00 in0.0 mm 0.00 in0.0 mm
10:32 AM 55.0°F12.8°C 35.2°F1.8°C 47% Calm Calm -- 30.34 in1027.4 mb - 0.00 in0.0 mm 0.00 in0.0 mm
10:27 AM 54.5°F12.5°C 34.7°F1.5°C 47% Calm Calm -- 30.34 in1027.4 mb - 0.00 in0.0 mm 0.00 in0.0 mm
10:22 AM 54.0°F12.2°C 34.2°F1.2°C 47% Calm Calm -- 30.34 in1027.4 mb - 0.00 in0.0 mm 0.00 in0.0 mm
10:17 AM 53.2°F11.8°C 34.2°F1.2°C 48% Calm Calm -- 30.31 in1026.4 mb - 0.00 in0.0 mm 0.00 in0.0 mm
10:12 AM 52.7°F11.5°C 33.6°F0.9°C 48% Calm Calm -- 30.31 in1026.4 mb - 0.00 in0.0 mm 0.00 in0.0 mm
10:07 AM 52.2°F11.2°C 33.6°F0.9°C 49% Calm Calm -- 30.31 in1026.4 mb - 0.00 in0.0 mm 0.00 in0.0 mm
10:02 AM 51.8°F11.0°C 34.3°F1.3°C 51% Calm Calm -- 30.34 in1027.4 mb - 0.00 in0.0 mm 0.00 in0.0 mm
09:57 AM 51.1°F10.6°C 33.1°F0.6°C 50% Calm Calm -- 30.34 in1027.4 mb - 0.00 in0.0 mm 0.00 in0.0 mm
09:52 AM 50.9°F10.5°C 33.4°F0.8°C 51% Calm Calm -- 30.34 in1027.4 mb - 0.00 in0.0 mm 0.00 in0.0 mm
09:47 AM 50.7°F10.4°C 33.8°F1.0°C 52% Calm Calm -- 30.34 in1027.4 mb - 0.00 in0.0 mm 0.00 in0.0 mm
09:42 AM 50.4°F10.2°C 35.2°F1.8°C 56% Calm Calm -- 30.34 in1027.4 mb - 0.00 in0.0 mm 0.00 in0.0 mm
09:37 AM 49.8°F9.9°C 35.6°F2.0°C 58% Calm Calm -- 30.34 in1027.4 mb - 0.00 in0.0 mm 0.00 in0.0 mm
09:32 AM 49.3°F9.6°C 35.6°F2.0°C 59% Calm Calm -- 30.34 in1027.4 mb - 0.00 in0.0 mm 0.00 in0.0 mm
09:27 AM 48.6°F9.2°C 35.8°F2.1°C 61% Calm Calm -- 30.34 in1027.4 mb - 0.00 in0.0 mm 0.00 in0.0 mm
09:22 AM 47.8°F8.8°C 35.4°F1.9°C 62% Calm Calm -- 30.34 in1027.4 mb - 0.00 in0.0 mm 0.00 in0.0 mm
09:17 AM 47.3°F8.5°C 36.1°F2.3°C 65% Calm Calm -- 30.34 in1027.4 mb - 0.00 in0.0 mm 0.00 in0.0 mm
09:12 AM 46.0°F7.8°C 35.8°F2.1°C 67% Calm Calm -- 30.34 in1027.4 mb - 0.00 in0.0 mm 0.00 in0.0 mm
09:07 AM 45.3°F7.4°C 35.4°F1.9°C 68% Calm Calm -- 30.34 in1027.4 mb - 0.00 in0.0 mm 0.00 in0.0 mm
09:02 AM 44.1°F6.7°C 34.9°F1.6°C 70% Calm Calm -- 30.34 in1027.4 mb - 0.00 in0.0 mm 0.00 in0.0 mm
08:57 AM 43.2°F6.2°C 34.3°F1.3°C 71% Calm Calm -- 30.34 in1027.4 mb - 0.00 in0.0 mm 0.00 in0.0 mm
08:52 AM 42.8°F6.0°C 34.2°F1.2°C 71% Calm Calm -- 30.34 in1027.4 mb - 0.00 in0.0 mm 0.00 in0.0 mm
08:47 AM 42.1°F5.6°C 34.2°F1.2°C 73% Calm Calm -- 30.34 in1027.4 mb - 0.00 in0.0 mm 0.00 in0.0 mm
08:42 AM 40.8°F4.9°C 33.3°F0.7°C 74% Calm Calm -- 30.34 in1027.4 mb - 0.00 in0.0 mm 0.00 in0.0 mm
08:37 AM 40.3°F4.6°C 32.7°F0.4°C 74% Calm Calm -- 30.34 in1027.4 mb - 0.00 in0.0 mm 0.00 in0.0 mm
08:32 AM 39.4°F4.1°C 32.2°F0.1°C 75% Calm Calm -- 30.37 in1028.4 mb - 0.00 in0.0 mm 0.00 in0.0 mm
08:27 AM 38.8°F3.8°C 32.0°F0.0°C 76% Calm Calm -- 30.37 in1028.4 mb - 0.00 in0.0 mm 0.00 in0.0 mm
08:22 AM 38.3°F3.5°C 31.8°F-0.1°C 77% Calm Calm -- 30.37 in1028.4 mb - 0.00 in0.0 mm 0.00 in0.0 mm
08:17 AM 37.4°F3.0°C 30.2°F-1.0°C 75% Calm Calm -- 30.34 in1027.4 mb - 0.00 in0.0 mm 0.00 in0.0 mm
08:12 AM 36.9°F2.7°C 29.7°F-1.3°C 75% Calm Calm -- 30.34 in1027.4 mb - 0.00 in0.0 mm 0.00 in0.0 mm
08:07 AM 36.3°F2.4°C 29.1°F-1.6°C 75% Calm Calm -- 30.34 in1027.4 mb - 0.00 in0.0 mm 0.00 in0.0 mm
08:02 AM 36.3°F2.4°C 29.1°F-1.6°C 75% Calm Calm -- 30.34 in1027.4 mb - 0.00 in0.0 mm 0.00 in0.0 mm
07:57 AM 36.3°F2.4°C 28.9°F-1.7°C 74% Calm Calm -- 30.34 in1027.4 mb - 0.00 in0.0 mm 0.00 in0.0 mm
07:52 AM 36.5°F2.5°C 28.9°F-1.7°C 74% Calm Calm -- 30.34 in1027.4 mb - 0.00 in0.0 mm 0.00 in0.0 mm
07:47 AM 36.7°F2.6°C 29.1°F-1.6°C 74% Calm Calm -- 30.34 in1027.4 mb - 0.00 in0.0 mm 0.00 in0.0 mm
07:42 AM 36.9°F2.7°C 29.3°F-1.5°C 74% Calm Calm -- 30.34 in1027.4 mb - 0.00 in0.0 mm 0.00 in0.0 mm
07:37 AM 36.9°F2.7°C 29.7°F-1.3°C 75% Calm Calm -- 30.34 in1027.4 mb - 0.00 in0.0 mm 0.00 in0.0 mm
07:32 AM 37.2°F2.9°C 29.7°F-1.3°C 74% Calm Calm -- 30.34 in1027.4 mb - 0.00 in0.0 mm 0.00 in0.0 mm
07:27 AM 37.4°F3.0°C 29.5°F-1.4°C 73% Calm Calm -- 30.34 in1027.4 mb - 0.00 in0.0 mm 0.00 in0.0 mm
07:22 AM 37.6°F3.1°C 29.7°F-1.3°C 73% Calm Calm -- 30.34 in1027.4 mb - 0.00 in0.0 mm 0.00 in0.0 mm
07:17 AM 37.9°F3.3°C 29.7°F-1.3°C 72% Calm Calm -- 30.34 in1027.4 mb - 0.00 in0.0 mm 0.00 in0.0 mm
07:12 AM 37.9°F3.3°C 29.7°F-1.3°C 72% Calm Calm -- 30.34 in1027.4 mb - 0.00 in0.0 mm 0.00 in0.0 mm
07:07 AM 38.1°F3.4°C 29.8°F-1.2°C 72% Calm Calm -- 30.34 in1027.4 mb - 0.00 in0.0 mm 0.00 in0.0 mm
07:02 AM 38.7°F3.7°C 30.4°F-0.9°C 72% Calm Calm -- 30.34 in1027.4 mb - 0.00 in0.0 mm 0.00 in0.0 mm
06:57 AM 38.8°F3.8°C 30.2°F-1.0°C 71% Calm Calm -- 30.34 in1027.4 mb - 0.00 in0.0 mm 0.00 in0.0 mm
06:52 AM 38.8°F3.8°C 30.6°F-0.8°C 72% Calm Calm -- 30.34 in1027.4 mb - 0.00 in0.0 mm 0.00 in0.0 mm
06:47 AM 38.8°F3.8°C 30.2°F-1.0°C 71% Calm Calm -- 30.34 in1027.4 mb - 0.00 in0.0 mm 0.00 in0.0 mm
06:42 AM 38.8°F3.8°C 30.2°F-1.0°C 71% Calm Calm -- 30.34 in1027.4 mb - 0.00 in0.0 mm 0.00 in0.0 mm
06:37 AM 39.0°F3.9°C 30.4°F-0.9°C 71% Calm Calm -- 30.34 in1027.4 mb - 0.00 in0.0 mm 0.00 in0.0 mm
06:32 AM 38.8°F3.8°C 30.6°F-0.8°C 72% Calm Calm -- 30.34 in1027.4 mb - 0.00 in0.0 mm 0.00 in0.0 mm
06:27 AM 38.7°F3.7°C 31.1°F-0.5°C 74% 0.2 mph W0.3 kmh W 2.7 mph4.3 kmh 30.34 in1027.4 mb - 0.00 in0.0 mm 0.00 in0.0 mm
06:22 AM 38.1°F3.4°C 30.2°F-1.0°C 73% Calm Calm -- 30.34 in1027.4 mb - 0.00 in0.0 mm 0.00 in0.0 mm
06:17 AM 37.8°F3.2°C 29.8°F-1.2°C 73% Calm Calm -- 30.34 in1027.4 mb - 0.00 in0.0 mm 0.00 in0.0 mm
06:12 AM 37.6°F3.1°C 29.1°F-1.6°C 71% Calm Calm -- 30.34 in1027.4 mb - 0.00 in0.0 mm 0.00 in0.0 mm
06:07 AM 37.6°F3.1°C 29.1°F-1.6°C 71% Calm Calm -- 30.34 in1027.4 mb - 0.00 in0.0 mm 0.00 in0.0 mm
06:02 AM 37.9°F3.3°C 29.5°F-1.4°C 71% Calm Calm -- 30.34 in1027.4 mb - 0.00 in0.0 mm 0.00 in0.0 mm
05:57 AM 38.1°F3.4°C 29.7°F-1.3°C 71% Calm Calm -- 30.34 in1027.4 mb - 0.00 in0.0 mm 0.00 in0.0 mm
05:52 AM 38.3°F3.5°C 30.0°F-1.1°C 72% Calm Calm -- 30.34 in1027.4 mb - 0.00 in0.0 mm 0.00 in0.0 mm
05:47 AM 38.7°F3.7°C 30.7°F-0.7°C 73% Calm Calm -- 30.34 in1027.4 mb - 0.00 in0.0 mm 0.00 in0.0 mm
05:42 AM 38.8°F3.8°C 30.2°F-1.0°C 71% Calm Calm -- 30.34 in1027.4 mb - 0.00 in0.0 mm 0.00 in0.0 mm
05:37 AM 39.2°F4.0°C 30.9°F-0.6°C 72% Calm Calm -- 30.34 in1027.4 mb - 0.00 in0.0 mm 0.00 in0.0 mm
05:32 AM 39.6°F4.2°C 30.2°F-1.0°C 69% Calm Calm -- 30.34 in1027.4 mb - 0.00 in0.0 mm 0.00 in0.0 mm
05:27 AM 39.4°F4.1°C 30.4°F-0.9°C 70% Calm Calm -- 30.34 in1027.4 mb - 0.00 in0.0 mm 0.00 in0.0 mm
05:22 AM 39.2°F4.0°C 29.8°F-1.2°C 69% Calm Calm -- 30.34 in1027.4 mb - 0.00 in0.0 mm 0.00 in0.0 mm
05:17 AM 38.8°F3.8°C 29.5°F-1.4°C 69% Calm Calm -- 30.34 in1027.4 mb - 0.00 in0.0 mm 0.00 in0.0 mm
05:12 AM 38.8°F3.8°C 29.5°F-1.4°C 69% Calm Calm -- 30.34 in1027.4 mb - 0.00 in0.0 mm 0.00 in0.0 mm
05:07 AM 38.8°F3.8°C 29.3°F-1.5°C 68% Calm Calm -- 30.34 in1027.4 mb - 0.00 in0.0 mm 0.00 in0.0 mm
05:02 AM 39.0°F3.9°C 29.3°F-1.5°C 68% Calm Calm -- 30.34 in1027.4 mb - 0.00 in0.0 mm 0.00 in0.0 mm
04:57 AM 39.4°F4.1°C 29.3°F-1.5°C 67% Calm Calm -- 30.34 in1027.4 mb - 0.00 in0.0 mm 0.00 in0.0 mm
04:52 AM 39.6°F4.2°C 29.8°F-1.2°C 68% Calm Calm -- 30.34 in1027.4 mb - 0.00 in0.0 mm 0.00 in0.0 mm
04:47 AM 39.7°F4.3°C 30.4°F-0.9°C 69% Calm Calm -- 30.34 in1027.4 mb - 0.00 in0.0 mm 0.00 in0.0 mm
04:42 AM 39.9°F4.4°C 29.5°F-1.4°C 66% Calm Calm -- 30.34 in1027.4 mb - 0.00 in0.0 mm 0.00 in0.0 mm
04:37 AM 39.9°F4.4°C 29.5°F-1.4°C 66% Calm Calm -- 30.34 in1027.4 mb - 0.00 in0.0 mm 0.00 in0.0 mm
04:32 AM 39.9°F4.4°C 29.5°F-1.4°C 66% Calm Calm -- 30.34 in1027.4 mb - 0.00 in0.0 mm 0.00 in0.0 mm
04:27 AM 40.5°F4.7°C 30.4°F-0.9°C 67% Calm Calm -- 30.34 in1027.4 mb - 0.00 in0.0 mm 0.00 in0.0 mm
04:22 AM 41.0°F5.0°C 29.8°F-1.2°C 64% Calm Calm -- 30.34 in1027.4 mb - 0.00 in0.0 mm 0.00 in0.0 mm
04:17 AM 41.5°F5.3°C 31.1°F-0.5°C 66% Calm Calm -- 30.31 in1026.4 mb - 0.00 in0.0 mm 0.00 in0.0 mm
04:12 AM 41.7°F5.4°C 30.0°F-1.1°C 63% Calm Calm -- 30.31 in1026.4 mb - 0.00 in0.0 mm 0.00 in0.0 mm
04:07 AM 41.7°F5.4°C 29.7°F-1.3°C 62% Calm Calm -- 30.31 in1026.4 mb - 0.00 in0.0 mm 0.00 in0.0 mm
04:02 AM 42.1°F5.6°C 30.0°F-1.1°C 62% Calm Calm -- 30.34 in1027.4 mb - 0.00 in0.0 mm 0.00 in0.0 mm
03:57 AM 42.3°F5.7°C 30.2°F-1.0°C 62% Calm Calm -- 30.34 in1027.4 mb - 0.00 in0.0 mm 0.00 in0.0 mm
03:52 AM 42.6°F5.9°C 30.6°F-0.8°C 62% 0.2 mph WSW0.3 kmh WSW 3.8 mph6.1 kmh 30.34 in1027.4 mb - 0.00 in0.0 mm 0.00 in0.0 mm
03:47 AM 42.8°F6.0°C 31.1°F-0.5°C 63% Calm Calm -- 30.34 in1027.4 mb - 0.00 in0.0 mm 0.00 in0.0 mm
03:42 AM 42.8°F6.0°C 31.1°F-0.5°C 63% Calm Calm -- 30.34 in1027.4 mb - 0.00 in0.0 mm 0.00 in0.0 mm
03:37 AM 42.6°F5.9°C 30.9°F-0.6°C 63% Calm Calm -- 30.34 in1027.4 mb - 0.00 in0.0 mm 0.00 in0.0 mm
03:32 AM 42.6°F5.9°C 30.9°F-0.6°C 63% Calm Calm -- 30.34 in1027.4 mb - 0.00 in0.0 mm 0.00 in0.0 mm
03:27 AM 42.6°F5.9°C 31.3°F-0.4°C 64% Calm Calm 0.9 mph1.4 kmh 30.34 in1027.4 mb - 0.00 in0.0 mm 0.00 in0.0 mm
03:22 AM 42.3°F5.7°C 30.6°F-0.8°C 63% Calm Calm -- 30.34 in1027.4 mb - 0.00 in0.0 mm 0.00 in0.0 mm
03:17 AM 42.1°F5.6°C 30.4°F-0.9°C 63% Calm Calm -- 30.31 in1026.4 mb - 0.00 in0.0 mm 0.00 in0.0 mm
03:12 AM 42.1°F5.6°C 29.7°F-1.3°C 61% Calm Calm -- 30.31 in1026.4 mb - 0.00 in0.0 mm 0.00 in0.0 mm
03:07 AM 42.1°F5.6°C 29.7°F-1.3°C 61% Calm Calm -- 30.31 in1026.4 mb - 0.00 in0.0 mm 0.00 in0.0 mm
03:02 AM 42.3°F5.7°C 28.9°F-1.7°C 59% Calm Calm -- 30.34 in1027.4 mb - 0.00 in0.0 mm 0.00 in0.0 mm
02:57 AM 42.6°F5.9°C 29.3°F-1.5°C 59% Calm Calm -- 30.34 in1027.4 mb - 0.00 in0.0 mm 0.00 in0.0 mm
02:52 AM 43.0°F6.1°C 30.0°F-1.1°C 60% Calm Calm -- 30.34 in1027.4 mb - 0.00 in0.0 mm 0.00 in0.0 mm
02:47 AM 43.3°F6.3°C 29.7°F-1.3°C 58% - N N -- 30.34 in1027.4 mb - 0.00 in0.0 mm 0.00 in0.0 mm
02:42 AM 43.9°F6.6°C 29.7°F-1.3°C 57% Calm Calm -- 30.34 in1027.4 mb - 0.00 in0.0 mm 0.00 in0.0 mm
02:37 AM 44.2°F6.8°C 30.4°F-0.9°C 58% 0.2 mph SW0.3 kmh SW 3.6 mph5.8 kmh 30.34 in1027.4 mb - 0.00 in0.0 mm 0.00 in0.0 mm
02:32 AM 44.6°F7.0°C 30.4°F-0.9°C 57% Calm Calm -- 30.34 in1027.4 mb - 0.00 in0.0 mm 0.00 in0.0 mm
02:27 AM 44.8°F7.1°C 30.6°F-0.8°C 57% 0.4 mph SW0.6 kmh SW 4.9 mph7.9 kmh 30.34 in1027.4 mb - 0.00 in0.0 mm 0.00 in0.0 mm
02:22 AM 44.8°F7.1°C 30.6°F-0.8°C 57% Calm Calm -- 30.34 in1027.4 mb - 0.00 in0.0 mm 0.00 in0.0 mm
02:17 AM 44.8°F7.1°C 30.9°F-0.6°C 58% Calm Calm -- 30.34 in1027.4 mb - 0.00 in0.0 mm 0.00 in0.0 mm
02:12 AM 44.8°F7.1°C 30.9°F-0.6°C 58% 0.2 mph WSW0.3 kmh WSW 2.7 mph4.3 kmh 30.34 in1027.4 mb - 0.00 in0.0 mm 0.00 in0.0 mm
02:07 AM 44.6°F7.0°C 31.3°F-0.4°C 59% 1.3 mph SW2.1 kmh SW 5.1 mph8.2 kmh 30.34 in1027.4 mb - 0.00 in0.0 mm 0.00 in0.0 mm
02:02 AM 44.6°F7.0°C 31.3°F-0.4°C 59% 0.9 mph SW1.4 kmh SW 0.9 mph1.4 kmh 30.34 in1027.4 mb - 0.00 in0.0 mm 0.00 in0.0 mm
01:57 AM 44.4°F6.9°C 31.5°F-0.3°C 60% 0.7 mph WSW1.1 kmh WSW 4.7 mph7.6 kmh 30.34 in1027.4 mb - 0.00 in0.0 mm 0.00 in0.0 mm
01:52 AM 44.2°F6.8°C 31.3°F-0.4°C 60% Calm Calm -- 30.34 in1027.4 mb - 0.00 in0.0 mm 0.00 in0.0 mm
01:47 AM 43.9°F6.6°C 31.3°F-0.4°C 61% Calm Calm -- 30.34 in1027.4 mb - 0.00 in0.0 mm 0.00 in0.0 mm
01:42 AM 43.5°F6.4°C 31.5°F-0.3°C 62% Calm Calm -- 30.34 in1027.4 mb - 0.00 in0.0 mm 0.00 in0.0 mm
01:37 AM 43.2°F6.2°C 31.1°F-0.5°C 62% Calm Calm -- 30.34 in1027.4 mb - 0.00 in0.0 mm 0.00 in0.0 mm
01:32 AM 43.3°F6.3°C 30.4°F-0.9°C 60% Calm Calm -- 30.34 in1027.4 mb - 0.00 in0.0 mm 0.00 in0.0 mm
01:27 AM 43.5°F6.4°C 30.9°F-0.6°C 61% Calm Calm -- 30.34 in1027.4 mb - 0.00 in0.0 mm 0.00 in0.0 mm
01:22 AM 43.5°F6.4°C 30.9°F-0.6°C 61% Calm Calm -- 30.34 in1027.4 mb - 0.00 in0.0 mm 0.00 in0.0 mm
01:17 AM 43.5°F6.4°C 31.8°F-0.1°C 63% Calm Calm -- 30.34 in1027.4 mb - 0.00 in0.0 mm 0.00 in0.0 mm
01:12 AM 43.0°F6.1°C 30.9°F-0.6°C 62% 0.2 mph S0.3 kmh S 2.5 mph4.0 kmh 30.34 in1027.4 mb - 0.00 in0.0 mm 0.00 in0.0 mm
01:07 AM 42.8°F6.0°C 31.8°F-0.1°C 65% 3.8 mph S6.1 kmh S 5.6 mph9.0 kmh 30.34 in1027.4 mb - 0.00 in0.0 mm 0.00 in0.0 mm
01:02 AM 43.2°F6.2°C 30.7°F-0.7°C 61% Calm Calm -- 30.34 in1027.4 mb - 0.00 in0.0 mm 0.00 in0.0 mm
12:57 AM 43.3°F6.3°C 31.6°F-0.2°C 63% Calm Calm -- 30.34 in1027.4 mb - 0.00 in0.0 mm 0.00 in0.0 mm
12:52 AM 43.5°F6.4°C 30.6°F-0.8°C 60% Calm Calm -- 30.34 in1027.4 mb - 0.00 in0.0 mm 0.00 in0.0 mm
12:47 AM 43.7°F6.5°C 30.4°F-0.9°C 59% Calm Calm -- 30.34 in1027.4 mb - 0.00 in0.0 mm 0.00 in0.0 mm
12:42 AM 43.7°F6.5°C 30.4°F-0.9°C 59% 0.4 mph S0.6 kmh S 3.6 mph5.8 kmh 30.34 in1027.4 mb - 0.00 in0.0 mm 0.00 in0.0 mm
12:37 AM 43.7°F6.5°C 31.6°F-0.2°C 62% 1.8 mph SSW2.9 kmh SSW 5.4 mph8.7 kmh 30.34 in1027.4 mb - 0.00 in0.0 mm 0.00 in0.0 mm
12:32 AM 43.7°F6.5°C 31.6°F-0.2°C 62% Calm Calm -- 30.34 in1027.4 mb - 0.00 in0.0 mm 0.00 in0.0 mm
12:27 AM 43.5°F6.4°C 32.2°F0.1°C 64% Calm Calm -- 30.34 in1027.4 mb - 0.00 in0.0 mm 0.00 in0.0 mm
12:22 AM 43.3°F6.3°C 30.4°F-0.9°C 60% Calm Calm -- 30.34 in1027.4 mb - 0.00 in0.0 mm 0.00 in0.0 mm
12:17 AM 43.3°F6.3°C 32.0°F0.0°C 64% Calm Calm -- 30.37 in1028.4 mb - 0.00 in0.0 mm 0.00 in0.0 mm
12:12 AM 43.5°F6.4°C 30.2°F-1.0°C 59% Calm Calm -- 30.37 in1028.4 mb - 0.00 in0.0 mm 0.00 in0.0 mm
12:07 AM 43.7°F6.5°C 29.8°F-1.2°C 58% Calm Calm -- 30.37 in1028.4 mb - 0.00 in0.0 mm 0.00 in0.0 mm
12:02 AM 44.1°F6.7°C 30.2°F-1.0°C 58% Calm Calm -- 30.37 in1028.4 mb - 0.00 in0.0 mm 0.00 in0.0 mm